Archival Weather

Glendale Muni

Glendale, Arizona (KGEU)

Report from: Wednesday, December 6, 2023 2:47 PM MST
Current time: Wednesday, April 24, 2024 12:58 PM MST

Current weather – Weather history – Daily summaries
Weather forecast

Temperature27.0°C (80.6°F)
Heat index26.2°C (79.2°F)
Dew point-2.0°C (28.4°F)
Winds 6 kts (3.1 m/s, 6.9 mph) East (100°)
Visibility10 mi. (16.1 km)
Clouds Sky clear
Altimeter29.97 in.Hg (1015 mB)
Relative humidity15 %
Density altitude1,416 ft. (432 m)
Flight conditions Visual Meteorological Conditions
Raw dataKGEU 062147Z 10006KT 10SM SKC 27/M02 A2997
An error has occurred. This application may no longer respond until reloaded. Reload 🗙